Terminal Aerodrome Forecast
Issued by NWS Newport/Morehead City, NC

Home | Current Version | Previous Version | Text Only | Print | Product List | Glossary On
Versions: 1 2 3 4 5 6 7 8 9 10 11 12 13
000
FTUS42 KMHX 052322
TAFEWN
TAF
KEWN 052322Z 0600/0624 18004KT P6SM BKN250
     FM060930 00000KT 3SM BR BKN250
     FM061200 VRB03KT P6SM BKN250
     FM061400 15011KT P6SM BKN250=

USA.gov is the U.S. government's official web portal to all federal, state and local government web resources and services.